Time;durP1;ratioP1;P1;durP2;ratioP2;P2;SDS_P1;SDS_P2;PMS_P1;PMS_P2;Temp;Humidity;BMP_temperature;BMP_pressure;BME280_temperature;BME280_humidity;BME280_pressure;Samples;Min_cycle;Max_cycle;Signal;HPM_P1;HPM_P2
2023/05/03 00:00:00;;;;;;;0.20;0.20;;;;;;;9.69;48.21;102253.72;15546759;28;20422;-54
2023/05/03 00:07:32;;;;;;;0.88;0.50;;;;;;;9.61;49.59;102257.25;15545721;28;20077;-53
2023/05/03 00:15:08;;;;;;;0.73;0.43;;;;;;;9.12;49.39;102264.34;15530822;28;20088;-53
2023/05/03 00:22:41;;;;;;;0.35;0.20;;;;;;;9.26;50.50;102260.19;15544445;28;20054;-52
2023/05/03 00:30:17;;;;;;;1.38;1.02;;;;;;;9.35;50.09;102259.22;15548777;28;20034;-54
2023/05/03 00:37:50;;;;;;;0.22;0.20;;;;;;;8.33;52.50;102265.47;15518211;28;20501;-52
2023/05/03 00:45:24;;;;;;;0.87;0.57;;;;;;;8.39;52.55;102270.22;15555963;28;20538;-54
2023/05/03 00:52:57;;;;;;;0.40;0.40;;;;;;;8.28;52.42;102251.75;15536354;28;20045;-56
2023/05/03 01:00:37;;;;;;;5.15;0.73;;;;;;;8.00;53.35;102257.22;15557438;28;20040;-53
2023/05/03 01:08:15;;;;;;;0.32;0.32;;;;;;;8.17;53.27;102263.53;15538514;28;20081;-54
2023/05/03 01:15:57;;;;;;;0.65;0.20;;;;;;;7.53;55.51;102254.84;15557603;28;20041;-57
2023/05/03 01:23:46;;;;;;;0.28;0.28;;;;;;;7.55;55.50;102262.69;15535414;28;20137;-56
2023/05/03 01:31:26;;;;;;;0.10;0.10;;;;;;;6.96;57.05;102267.59;15539957;28;20037;-54
2023/05/03 01:39:06;;;;;;;0.43;0.20;;;;;;;7.47;55.53;102268.81;15538263;28;20609;-55
2023/05/03 01:46:44;;;;;;;0.30;0.30;;;;;;;7.13;56.75;102271.28;15538856;28;20287;-55
2023/05/03 01:54:18;;;;;;;4.55;0.77;;;;;;;7.32;55.90;102270.31;15555054;28;20483;-53
2023/05/03 02:01:51;;;;;;;1.10;0.63;;;;;;;6.96;57.48;102269.44;15538214;28;20069;-55
2023/05/03 02:09:25;;;;;;;3.80;1.08;;;;;;;6.85;57.67;102267.78;15521148;28;20308;-52
2023/05/03 02:16:59;;;;;;;1.35;0.70;;;;;;;6.70;57.92;102272.78;15553818;28;20069;-55
2023/05/03 02:24:35;;;;;;;0.00;0.00;;;;;;;6.66;57.40;102268.72;15534360;28;20050;-53
2023/05/03 02:32:09;;;;;;;5.47;0.55;;;;;;;6.82;58.24;102287.63;15536176;28;20034;-53
2023/05/03 02:39:42;;;;;;;1.10;0.52;;;;;;;6.84;57.47;102285.63;15532929;28;20550;-57
2023/05/03 02:47:17;;;;;;;0.32;0.32;;;;;;;6.95;57.40;102286.41;15533166;28;20104;-54
2023/05/03 02:54:50;;;;;;;0.17;0.10;;;;;;;6.69;57.41;102291.63;15552379;28;20046;-53
2023/05/03 03:02:26;;;;;;;0.13;0.13;;;;;;;6.60;58.13;102302.16;15519516;28;20052;-54
2023/05/03 03:09:59;;;;;;;2.17;0.60;;;;;;;6.47;57.58;102320.31;15521611;28;20049;-56
2023/05/03 03:17:37;;;;;;;0.23;0.23;;;;;;;6.05;59.25;102287.84;15535374;28;20049;-56
2023/05/03 03:25:11;;;;;;;0.80;0.40;;;;;;;6.06;59.32;102311.72;15542186;28;20550;-53
2023/05/03 03:32:46;;;;;;;0.40;0.20;;;;;;;6.14;58.81;102325.16;15516708;28;20137;-53
2023/05/03 03:40:27;;;;;;;0.15;0.15;;;;;;;5.86;60.28;102318.81;15532012;28;20309;-54
2023/05/03 03:48:04;;;;;;;0.03;0.03;;;;;;;6.14;59.94;102308.31;15511571;28;20128;-54
2023/05/03 03:55:37;;;;;;;0.32;0.32;;;;;;;6.06;60.06;102325.03;15537590;28;20140;-54
2023/05/03 04:03:11;;;;;;;0.25;0.22;;;;;;;5.92;60.07;102321.94;15543410;28;20057;-52
2023/05/03 04:10:45;;;;;;;0.63;0.17;;;;;;;6.20;59.95;102336.22;15535019;28;20148;-56
2023/05/03 04:18:21;;;;;;;0.68;0.45;;;;;;;6.18;61.00;102348.88;15541797;28;20526;-54
2023/05/03 04:25:55;;;;;;;1.00;0.40;;;;;;;6.32;59.91;102353.75;15535487;28;20069;-54
2023/05/03 04:33:30;;;;;;;0.38;0.38;;;;;;;6.35;60.07;102370.31;15542369;28;20046;-52
2023/05/03 04:41:08;;;;;;;8.85;0.77;;;;;;;6.73;58.68;102367.72;15534701;28;20364;-54
2023/05/03 04:48:42;;;;;;;0.17;0.17;;;;;;;6.62;59.20;102369.59;15559854;28;20044;-52
2023/05/03 04:56:19;;;;;;;1.35;0.43;;;;;;;6.76;57.86;102381.63;15543432;28;20053;-53
2023/05/03 05:03:54;;;;;;;0.10;0.10;;;;;;;6.87;58.21;102386.78;15523932;28;20417;-53
2023/05/03 05:11:31;;;;;;;0.10;0.10;;;;;;;7.23;56.69;102383.38;15535249;28;20108;-53
2023/05/03 05:19:06;;;;;;;;;;;;;;;7.58;56.43;102386.16;15543355;28;20451;-54
2023/05/03 05:26:39;;;;;;;0.40;0.40;;;;;;;8.09;53.80;102387.34;15544562;28;19921;-54
2023/05/03 05:34:14;;;;;;;0.47;0.30;;;;;;;8.52;53.64;102396.41;15555693;28;20092;-54
2023/05/03 05:41:46;;;;;;;0.68;0.28;;;;;;;8.57;53.42;102401.28;15557902;28;20304;-52
2023/05/03 05:49:21;;;;;;;0.52;0.28;;;;;;;10.86;47.74;102405.44;15522390;28;20045;-52
2023/05/03 05:56:55;;;;;;;0.43;0.43;;;;;;;13.32;40.81;102414.34;15553737;28;20045;-54
2023/05/03 06:04:29;;;;;;;1.58;0.98;;;;;;;15.27;37.17;102423.03;15555142;28;20040;-54
2023/05/03 06:12:03;;;;;;;0.35;0.25;;;;;;;16.20;35.99;102421.50;15539239;28;20038;-54
2023/05/03 06:19:40;;;;;;;0.40;0.15;;;;;;;16.22;34.88;102426.69;15536153;28;20049;-52
2023/05/03 06:27:12;;;;;;;0.20;0.20;;;;;;;14.36;39.12;102439.19;15555073;28;20038;-55
2023/05/03 06:34:47;;;;;;;0.17;0.17;;;;;;;12.72;42.95;102432.31;15537139;28;20049;-53
2023/05/03 06:42:20;;;;;;;0.85;0.32;;;;;;;13.43;40.85;102440.84;15550313;28;20045;-53
2023/05/03 06:49:54;;;;;;;0.70;0.37;;;;;;;12.25;42.59;102438.75;15519567;28;20073;-55
2023/05/03 06:57:27;;;;;;;0.20;0.20;;;;;;;12.57;41.46;102439.53;15555921;28;20045;-57
2023/05/03 07:05:01;;;;;;;0.00;0.00;;;;;;;13.52;40.60;102431.63;15554766;28;20042;-56
2023/05/03 07:12:34;;;;;;;0.45;0.45;;;;;;;15.48;38.40;102438.31;15552915;28;20099;-57
2023/05/03 07:20:09;;;;;;;0.20;0.17;;;;;;;16.43;35.61;102434.66;15553588;28;20042;-53
2023/05/03 07:27:42;;;;;;;0.65;0.38;;;;;;;16.09;33.33;102432.94;15553540;28;20046;-56
2023/05/03 07:35:16;;;;;;;0.43;0.30;;;;;;;13.79;36.96;102432.75;15552439;28;20065;-54
2023/05/03 07:42:49;;;;;;;0.00;0.00;;;;;;;14.59;36.55;102424.63;15536215;28;20494;-53
2023/05/03 07:50:24;;;;;;;0.50;0.43;;;;;;;16.06;33.41;102417.91;15550825;28;20116;-54
2023/05/03 07:57:58;;;;;;;0.25;0.15;;;;;;;15.70;35.97;102426.34;15547978;28;20104;-54
2023/05/03 08:05:34;;;;;;;0.40;0.35;;;;;;;14.52;38.55;102421.91;15529489;28;20060;-55
2023/05/03 08:13:07;;;;;;;0.38;0.15;;;;;;;13.89;37.57;102418.97;15547732;28;20038;-52
2023/05/03 08:20:42;;;;;;;0.73;0.43;;;;;;;13.66;38.20;102427.25;15531873;28;20073;-54
2023/05/03 08:28:15;;;;;;;0.05;0.05;;;;;;;14.28;36.21;102417.72;15550774;28;20383;-53
2023/05/03 08:35:49;;;;;;;0.30;0.10;;;;;;;14.88;37.13;102412.81;15550097;28;20042;-52
2023/05/03 08:43:24;;;;;;;0.20;0.20;;;;;;;14.77;38.49;102422.28;15550004;28;20499;-54
2023/05/03 08:51:00;;;;;;;0.20;0.00;;;;;;;15.48;36.30;102422.94;15531959;28;20042;-55
2023/05/03 08:58:34;;;;;;;1.70;0.38;;;;;;;15.22;34.91;102429.03;15552609;28;20060;-55
2023/05/03 09:06:20;;;;;;;1.15;0.77;;;;;;;15.69;34.79;102419.28;15559648;28;20041;-54
2023/05/03 09:13:52;;;;;;;0.10;0.10;;;;;;;15.98;36.41;102420.81;15545972;28;20046;-54
2023/05/03 09:21:27;;;;;;;1.23;0.20;;;;;;;16.40;36.82;102435.03;15537495;28;20056;-54
2023/05/03 09:29:01;;;;;;;0.70;0.40;;;;;;;16.55;33.70;102424.00;15538353;28;20137;-53
2023/05/03 09:36:47;;;;;;;2.30;0.68;;;;;;;17.49;34.57;102425.53;15554370;28;20050;-55
2023/05/03 09:44:20;;;;;;;1.75;0.60;;;;;;;15.96;35.58;102427.50;15554319;28;20148;-54
2023/05/03 09:51:55;;;;;;;2.17;0.43;;;;;;;14.58;36.98;102422.97;15554190;28;20041;-56
2023/05/03 09:59:28;;;;;;;0.17;0.10;;;;;;;16.06;32.60;102411.69;15555577;28;20042;-58
2023/05/03 10:07:07;;;;;;;1.55;0.40;;;;;;;15.30;35.61;102414.53;15556623;28;20100;-55
2023/05/03 10:14:42;;;;;;;0.40;0.40;;;;;;;16.51;35.50;102414.63;15556029;28;20050;-57
2023/05/03 10:22:16;;;;;;;0.20;0.20;;;;;;;15.19;34.77;102410.50;15521738;28;20611;-54
2023/05/03 10:29:52;;;;;;;0.65;0.40;;;;;;;14.89;35.61;102415.31;15555158;28;20049;-55
2023/05/03 10:37:28;;;;;;;0.10;0.10;;;;;;;15.65;35.85;102403.66;15521951;28;20139;-52
2023/05/03 10:45:02;;;;;;;0.20;0.20;;;;;;;16.38;33.93;102399.19;15555208;28;20042;-51
2023/05/03 10:52:49;;;;;;;0.25;0.20;;;;;;;17.01;32.63;102399.56;15550554;28;20056;-54
2023/05/03 11:00:27;;;;;;;1.10;0.40;;;;;;;16.94;32.71;102387.91;15548323;28;20045;-52
2023/05/03 11:08:15;;;;;;;1.33;0.80;;;;;;;17.88;33.21;102378.34;15549935;28;20048;-51
2023/05/03 11:15:49;;;;;;;0.17;0.17;;;;;;;17.40;35.21;102378.78;15535100;28;20081;-52
2023/05/03 11:23:27;;;;;;;0.30;0.17;;;;;;;17.20;33.07;102375.31;15535048;28;20486;-54
2023/05/03 11:31:00;;;;;;;0.32;0.10;;;;;;;18.13;33.81;102364.78;15549177;28;20137;-52
2023/05/03 11:38:36;;;;;;;0.45;0.20;;;;;;;18.01;32.99;102367.38;15551671;28;20046;-53
2023/05/03 11:46:10;;;;;;;0.45;0.30;;;;;;;17.72;33.97;102357.09;15551352;28;20041;-55
2023/05/03 11:53:47;;;;;;;1.17;0.60;;;;;;;18.60;30.45;102359.75;15542369;28;20249;-54
2023/05/03 12:01:21;;;;;;;0.93;0.52;;;;;;;19.41;29.43;102345.06;15532168;28;20050;-56
2023/05/03 12:08:55;;;;;;;0.63;0.22;;;;;;;19.81;29.68;102353.50;15545814;28;20100;-54
2023/05/03 12:16:45;;;;;;;0.30;0.20;;;;;;;19.03;31.45;102350.78;15511333;28;20046;-55
2023/05/03 12:24:21;;;;;;;0.20;0.20;;;;;;;19.00;32.31;102337.63;15527651;28;20042;-54
2023/05/03 12:32:13;;;;;;;0.77;0.47;;;;;;;20.19;32.43;102329.66;15533188;28;20042;-54
2023/05/03 12:39:47;;;;;;;0.80;0.30;;;;;;;20.75;28.78;102334.56;15559216;28;20049;-53
2023/05/03 12:47:20;;;;;;;0.45;0.40;;;;;;;21.38;27.72;102339.16;15542857;28;20104;-52
2023/05/03 12:54:53;;;;;;;0.85;0.20;;;;;;;20.57;29.39;102335.50;15553430;28;20049;-53
2023/05/03 13:02:26;;;;;;;0.30;0.20;;;;;;;18.92;29.68;102330.56;15553961;28;20050;-51
2023/05/03 13:10:00;;;;;;;1.00;0.17;;;;;;;21.55;28.32;102292.75;15530998;28;20045;-56
2023/05/03 13:17:33;;;;;;;0.10;0.00;;;;;;;20.69;28.60;102308.19;15558295;28;20050;-53
2023/05/03 13:25:08;;;;;;;0.38;0.17;;;;;;;21.52;25.15;102300.59;15555890;28;20105;-53
2023/05/03 13:32:41;;;;;;;0.55;0.25;;;;;;;20.52;25.98;102289.03;15557018;28;20046;-53
2023/05/03 13:40:15;;;;;;;0.00;0.00;;;;;;;19.78;28.60;102280.44;15558828;28;20052;-52
2023/05/03 13:47:48;;;;;;;0.28;0.17;;;;;;;18.12;30.26;102273.44;15537023;28;20046;-52
2023/05/03 13:55:25;;;;;;;0.32;0.20;;;;;;;18.76;32.51;102272.19;15554630;28;20042;-51
2023/05/03 14:02:58;;;;;;;0.70;0.25;;;;;;;18.92;29.07;102259.00;15539705;28;20140;-55
2023/05/03 14:10:34;;;;;;;;;;;;;;;17.63;31.60;102256.06;15561476;28;20447;-52
2023/05/03 14:18:07;;;;;;;0.13;0.00;;;;;;;17.18;33.46;102252.59;15536594;28;19929;-52
2023/05/03 14:25:41;;;;;;;0.13;0.10;;;;;;;17.10;33.99;102242.81;15554553;28;20399;-55
2023/05/03 14:33:14;;;;;;;0.10;0.03;;;;;;;17.39;30.76;102254.94;15551740;28;20108;-52
2023/05/03 14:40:52;;;;;;;1.10;0.50;;;;;;;17.15;33.85;102236.72;15540472;28;20133;-52
2023/05/03 14:48:25;;;;;;;0.30;0.28;;;;;;;17.49;31.37;102249.06;15553779;28;20049;-53
2023/05/03 14:55:59;;;;;;;0.30;0.20;;;;;;;16.76;31.66;102233.16;15532622;28;20073;-53
2023/05/03 15:03:31;;;;;;;1.63;0.57;;;;;;;17.56;32.75;102239.81;15550767;28;20149;-51
2023/05/03 15:11:06;;;;;;;0.43;0.10;;;;;;;17.04;31.82;102228.22;15546736;28;20049;-53
2023/05/03 15:18:39;;;;;;;0.65;0.17;;;;;;;16.40;32.00;102231.78;15550435;28;20073;-52
2023/05/03 15:26:14;;;;;;;0.15;0.00;;;;;;;16.80;30.70;102223.56;15549611;28;20165;-51
2023/05/03 15:33:47;;;;;;;0.15;0.10;;;;;;;16.67;31.67;102221.69;15532488;28;20042;-50
2023/05/03 15:41:21;;;;;;;0.50;0.33;;;;;;;17.19;33.01;102213.53;15550090;28;20055;-52
2023/05/03 15:48:54;;;;;;;0.20;0.15;;;;;;;16.76;34.01;102211.47;15550003;28;20148;-54
2023/05/03 15:56:28;;;;;;;0.55;0.38;;;;;;;16.80;35.53;102210.00;15550997;28;20042;-52
2023/05/03 16:04:03;;;;;;;0.63;0.40;;;;;;;16.12;34.21;102198.72;15519381;28;20074;-52
2023/05/03 16:11:37;;;;;;;0.37;0.37;;;;;;;16.46;35.78;102200.28;15544331;28;20735;-51
2023/05/03 16:19:10;;;;;;;4.93;1.20;;;;;;;16.90;34.59;102190.56;15546688;28;20790;-50
2023/05/03 16:26:44;;;;;;;;;;;;;;;16.26;36.09;102193.03;15546165;28;20132;-52
2023/05/03 16:34:17;;;;;;;1.25;0.75;;;;;;;16.04;35.72;102181.66;15558292;23;20158;-48
2023/05/03 16:41:51;;;;;;;1.43;0.70;;;;;;;15.85;36.24;102196.03;15542322;28;20397;-51
2023/05/03 16:49:24;;;;;;;1.75;0.45;;;;;;;15.61;37.69;102193.94;15521744;28;20046;-48
2023/05/03 16:56:58;;;;;;;0.63;0.40;;;;;;;15.51;38.81;102186.22;15562281;28;20413;-53
2023/05/03 17:04:30;;;;;;;0.32;0.32;;;;;;;14.86;38.36;102187.78;15513854;28;20049;-48
2023/05/03 17:12:06;;;;;;;0.15;0.10;;;;;;;15.15;38.95;102184.72;15546299;28;20116;-47
2023/05/03 17:19:38;;;;;;;0.17;0.17;;;;;;;15.35;38.87;102192.06;15550181;28;20108;-48
2023/05/03 17:27:14;;;;;;;0.10;0.03;;;;;;;14.97;40.11;102204.25;15557236;28;20069;-48
2023/05/03 17:34:47;;;;;;;1.17;0.38;;;;;;;15.04;39.68;102191.56;15557923;28;20422;-48
2023/05/03 17:42:21;;;;;;;0.40;0.40;;;;;;;14.36;40.32;102193.38;15540064;28;20050;-51
2023/05/03 17:49:53;;;;;;;2.28;0.50;;;;;;;14.70;41.54;102189.81;15580446;28;20454;-49
2023/05/03 17:57:27;;;;;;;0.20;0.20;;;;;;;14.28;41.17;102198.94;15557478;28;20068;-52
2023/05/03 18:05:01;;;;;;;0.10;0.05;;;;;;;14.57;40.92;102197.84;15561044;28;20132;-47
2023/05/03 18:12:36;;;;;;;0.45;0.20;;;;;;;14.18;41.24;102193.88;15583633;28;20048;-54
2023/05/03 18:20:10;;;;;;;2.35;0.80;;;;;;;13.91;42.20;102205.53;15537900;28;20445;-48
2023/05/03 18:27:46;;;;;;;0.30;0.30;;;;;;;13.46;42.21;102207.63;15554969;28;20053;-52
2023/05/03 18:35:19;;;;;;;0.13;0.10;;;;;;;13.80;42.54;102206.88;15567643;28;20050;-48
2023/05/03 18:42:53;;;;;;;0.00;0.00;;;;;;;14.03;43.16;102209.34;15548927;28;20038;-49
2023/05/03 18:50:27;;;;;;;0.70;0.10;;;;;;;13.72;42.91;102199.78;15518933;28;20449;-50
2023/05/03 18:58:02;;;;;;;0.63;0.20;;;;;;;13.47;43.46;102217.41;15530296;28;20112;-49
2023/05/03 19:05:36;;;;;;;0.63;0.45;;;;;;;13.24;43.98;102220.28;15543837;28;20123;-49
2023/05/03 19:13:10;;;;;;;0.43;0.38;;;;;;;13.11;44.48;102228.22;15546656;28;20124;-49
2023/05/03 19:20:43;;;;;;;1.42;0.70;;;;;;;12.83;44.98;102233.50;15546218;28;20049;-47
2023/05/03 19:28:17;;;;;;;0.33;0.30;;;;;;;12.60;45.29;102229.06;15534402;28;20062;-52
2023/05/03 19:35:50;;;;;;;0.70;0.45;;;;;;;12.47;45.17;102231.56;15553321;28;20158;-48
2023/05/03 19:43:24;;;;;;;0.63;0.33;;;;;;;12.06;48.59;102223.91;15553889;28;20038;-53
2023/05/03 19:50:57;;;;;;;0.22;0.10;;;;;;;11.87;48.84;102225.28;15532734;28;20347;-52
2023/05/03 19:58:31;;;;;;;0.40;0.40;;;;;;;11.65;49.62;102224.25;15552797;28;20108;-51
2023/05/03 20:06:04;;;;;;;1.60;0.57;;;;;;;11.21;50.84;102210.66;15547068;28;20300;-51
2023/05/03 20:13:41;;;;;;;0.28;0.20;;;;;;;11.04;50.16;102217.97;15543779;28;20068;-52
2023/05/03 20:21:14;;;;;;;0.65;0.28;;;;;;;11.03;49.60;102219.00;15546908;28;20084;-51
2023/05/03 20:28:48;;;;;;;0.22;0.22;;;;;;;10.92;50.10;102220.25;15530863;28;20598;-52
2023/05/03 20:36:21;;;;;;;0.93;0.25;;;;;;;10.69;50.84;102222.03;15545049;28;20042;-51
2023/05/03 20:43:56;;;;;;;3.33;0.83;;;;;;;10.59;50.78;102222.25;15543435;28;20386;-47
2023/05/03 20:51:28;;;;;;;0.68;0.40;;;;;;;10.63;50.58;102223.56;15542685;28;20593;-46
2023/05/03 20:59:03;;;;;;;1.80;1.10;;;;;;;10.52;50.91;102210.50;15535494;28;20084;-50
2023/05/03 21:06:36;;;;;;;1.17;0.57;;;;;;;10.48;50.95;102206.50;15553223;28;20046;-48
2023/05/03 21:14:12;;;;;;;2.75;1.10;;;;;;;10.56;50.99;102211.00;15553469;28;20156;-50
2023/05/03 21:21:45;;;;;;;1.25;0.40;;;;;;;10.52;51.55;102210.50;15553352;28;20681;-48
2023/05/03 21:29:19;;;;;;;0.20;0.20;;;;;;;10.28;52.73;102210.59;15529959;28;20112;-49
2023/05/03 21:36:52;;;;;;;;;;;;;;;10.47;52.58;102208.34;15513506;28;1075656;-47
2023/05/03 21:44:26;;;;;;;0.30;0.30;;;;;;;10.44;52.55;102206.03;15537948;28;19932;-47
2023/05/03 21:51:58;;;;;;;0.20;0.20;;;;;;;10.27;54.30;102216.97;15542056;28;20457;-50
2023/05/03 21:59:32;;;;;;;0.70;0.70;;;;;;;10.25;54.68;102208.25;15546522;28;20529;-46
2023/05/03 22:07:05;;;;;;;18.23;0.57;;;;;;;10.20;54.98;102204.19;15549320;28;20548;-50
2023/05/03 22:14:39;;;;;;;0.30;0.30;;;;;;;9.55;56.62;102204.28;15548684;28;20049;-49
2023/05/03 22:22:12;;;;;;;2.75;0.47;;;;;;;9.24;57.33;102205.97;15534034;28;20044;-48
2023/05/03 22:29:46;;;;;;;0.40;0.40;;;;;;;9.06;57.65;102190.03;15550038;28;20438;-47
2023/05/03 22:37:19;;;;;;;3.90;0.98;;;;;;;8.75;59.16;102195.94;15565364;23;20057;-52
2023/05/03 22:44:53;;;;;;;1.42;0.88;;;;;;;8.25;60.60;102193.19;15509586;28;20566;-54
2023/05/03 22:52:26;;;;;;;1.40;0.93;;;;;;;8.55;59.49;102202.59;15484552;28;20042;-51
2023/05/03 23:00:01;;;;;;;0.87;0.70;;;;;;;8.45;60.08;102189.34;15491231;28;20081;-54
2023/05/03 23:07:34;;;;;;;1.17;0.82;;;;;;;8.17;61.10;102194.84;15490114;28;20495;-52
2023/05/03 23:15:10;;;;;;;1.05;0.82;;;;;;;8.05;61.32;102188.06;15483740;28;20129;-54
2023/05/03 23:22:42;;;;;;;0.47;0.40;;;;;;;7.80;61.92;102195.09;15469385;28;20137;-52
2023/05/03 23:30:16;;;;;;;0.33;0.10;;;;;;;7.87;61.49;102185.44;15488913;28;20084;-50
2023/05/03 23:37:49;;;;;;;2.08;0.45;;;;;;;7.78;62.07;102180.22;15469185;28;20042;-50
2023/05/03 23:45:23;;;;;;;5.03;0.57;;;;;;;8.10;60.63;102179.56;15489286;28;20050;-51
2023/05/03 23:52:57;;;;;;;1.45;1.08;;;;;;;7.90;61.12;102177.13;15488104;28;20121;-54
